sensor_id;sensor_type;location;lat;lon;timestamp;pressure;altitude;pressure_sealevel;temperature;humidity
9277;BME280;4676;42.678;23.244;2022-08-01T17:16:10;93866.25;;;25.00;41.71
9277;BME280;4676;42.678;23.244;2022-08-01T17:18:37;93885.16;;;24.92;41.15
9277;BME280;4676;42.678;23.244;2022-08-01T17:21:04;93878.59;;;24.80;41.46
9277;BME280;4676;42.678;23.244;2022-08-01T17:23:31;93884.81;;;24.69;41.43
9277;BME280;4676;42.678;23.244;2022-08-01T17:25:59;93886.91;;;24.66;41.20
9277;BME280;4676;42.678;23.244;2022-08-01T17:28:26;93888.53;;;24.49;40.95
9277;BME280;4676;42.678;23.244;2022-08-01T17:30:52;93882.84;;;24.46;41.40
9277;BME280;4676;42.678;23.244;2022-08-01T17:33:21;93892.16;;;24.38;41.50
9277;BME280;4676;42.678;23.244;2022-08-01T17:35:47;93891.31;;;24.30;42.26
9277;BME280;4676;42.678;23.244;2022-08-01T17:38:14;93887.97;;;24.20;42.09
9277;BME280;4676;42.678;23.244;2022-08-01T17:40:41;93897.81;;;24.16;42.10
9277;BME280;4676;42.678;23.244;2022-08-01T17:43:08;93902.34;;;24.05;42.33
9277;BME280;4676;42.678;23.244;2022-08-01T17:45:35;93903.91;;;23.98;42.64
9277;BME280;4676;42.678;23.244;2022-08-01T17:48:02;93901.22;;;23.89;43.35
9277;BME280;4676;42.678;23.244;2022-08-01T17:50:30;93904.09;;;23.86;43.07
9277;BME280;4676;42.678;23.244;2022-08-01T17:52:57;93910.16;;;23.77;43.92
9277;BME280;4676;42.678;23.244;2022-08-01T17:55:24;93908.72;;;23.65;43.83
9277;BME280;4676;42.678;23.244;2022-08-01T17:57:51;93910.25;;;23.58;44.28
9277;BME280;4676;42.678;23.244;2022-08-01T18:00:17;93910.28;;;23.49;44.60
9277;BME280;4676;42.678;23.244;2022-08-01T18:02:44;93923.50;;;23.46;45.57
9277;BME280;4676;42.678;23.244;2022-08-01T18:05:11;93926.25;;;23.34;45.17
9277;BME280;4676;42.678;23.244;2022-08-01T18:07:39;93933.06;;;23.26;45.62
9277;BME280;4676;42.678;23.244;2022-08-01T18:10:06;93929.28;;;23.20;47.01
9277;BME280;4676;42.678;23.244;2022-08-01T18:12:33;93931.91;;;23.11;47.17
9277;BME280;4676;42.678;23.244;2022-08-01T18:15:00;93931.22;;;23.09;47.19
9277;BME280;4676;42.678;23.244;2022-08-01T18:17:30;93937.91;;;23.02;46.97
9277;BME280;4676;42.678;23.244;2022-08-01T18:19:57;93944.44;;;22.96;47.84
9277;BME280;4676;42.678;23.244;2022-08-01T18:22:24;93946.22;;;22.96;48.03
9277;BME280;4676;42.678;23.244;2022-08-01T18:24:52;93948.38;;;23.00;47.66
9277;BME280;4676;42.678;23.244;2022-08-01T18:27:19;93951.13;;;22.89;48.46
9277;BME280;4676;42.678;23.244;2022-08-01T18:29:45;93953.00;;;22.87;47.60
9277;BME280;4676;42.678;23.244;2022-08-01T18:32:12;93958.06;;;22.79;48.94
9277;BME280;4676;42.678;23.244;2022-08-01T18:34:39;93964.03;;;22.70;48.83
9277;BME280;4676;42.678;23.244;2022-08-01T18:37:06;93963.25;;;22.69;48.66
9277;BME280;4676;42.678;23.244;2022-08-01T18:39:33;93970.84;;;22.71;48.79
9277;BME280;4676;42.678;23.244;2022-08-01T18:42:01;93964.19;;;22.59;48.72
9277;BME280;4676;42.678;23.244;2022-08-01T18:44:27;93969.63;;;22.65;49.54
9277;BME280;4676;42.678;23.244;2022-08-01T18:46:55;93982.81;;;22.62;50.07
9277;BME280;4676;42.678;23.244;2022-08-01T18:49:22;93990.97;;;22.58;48.69
9277;BME280;4676;42.678;23.244;2022-08-01T18:51:49;93993.25;;;22.61;47.51
9277;BME280;4676;42.678;23.244;2022-08-01T18:54:16;93992.44;;;22.51;49.47
9277;BME280;4676;42.678;23.244;2022-08-01T18:56:43;93990.53;;;22.43;49.72
9277;BME280;4676;42.678;23.244;2022-08-01T18:59:12;94000.03;;;22.42;50.36
9277;BME280;4676;42.678;23.244;2022-08-01T19:01:39;94003.84;;;22.38;49.32
9277;BME280;4676;42.678;23.244;2022-08-01T19:04:06;94004.66;;;22.29;50.58
9277;BME280;4676;42.678;23.244;2022-08-01T19:06:33;94005.31;;;22.22;51.48
9277;BME280;4676;42.678;23.244;2022-08-01T19:09:00;94007.19;;;22.10;51.53
9277;BME280;4676;42.678;23.244;2022-08-01T19:11:28;93959.94;;;21.79;49.50
9277;BME280;4676;42.678;23.244;2022-08-01T19:13:55;94017.50;;;22.01;50.80
9277;BME280;4676;42.678;23.244;2022-08-01T19:16:23;94021.81;;;22.00;50.81
9277;BME280;4676;42.678;23.244;2022-08-01T19:18:50;94025.06;;;21.92;52.53
9277;BME280;4676;42.678;23.244;2022-08-01T19:21:17;94028.53;;;21.82;52.95
9277;BME280;4676;42.678;23.244;2022-08-01T19:23:44;94021.41;;;21.74;53.52
9277;BME280;4676;42.678;23.244;2022-08-01T19:26:31;94027.50;;;21.64;54.40
9277;BME280;4676;42.678;23.244;2022-08-01T19:29:02;94027.97;;;21.48;54.35
9277;BME280;4676;42.678;23.244;2022-08-01T19:31:38;94021.63;;;21.31;54.47
9277;BME280;4676;42.678;23.244;2022-08-01T19:34:06;94029.69;;;21.38;54.24
9277;BME280;4676;42.678;23.244;2022-08-01T19:36:33;94013.47;;;21.26;54.19
9277;BME280;4676;42.678;23.244;2022-08-01T19:39:00;94029.28;;;21.22;54.54
9277;BME280;4676;42.678;23.244;2022-08-01T19:41:27;94034.66;;;21.30;54.78
9277;BME280;4676;42.678;23.244;2022-08-01T19:43:54;94030.81;;;21.24;55.27
9277;BME280;4676;42.678;23.244;2022-08-01T19:46:26;94027.16;;;21.27;54.95
9277;BME280;4676;42.678;23.244;2022-08-01T19:48:55;94030.25;;;21.21;55.78
9277;BME280;4676;42.678;23.244;2022-08-01T19:51:22;94035.22;;;21.13;56.15
9277;BME280;4676;42.678;23.244;2022-08-01T19:53:52;94026.56;;;21.03;56.43
9277;BME280;4676;42.678;23.244;2022-08-01T19:56:19;94029.81;;;21.05;56.28
9277;BME280;4676;42.678;23.244;2022-08-01T19:58:50;94028.13;;;20.94;57.42
9277;BME280;4676;42.678;23.244;2022-08-01T20:01:18;94026.81;;;21.00;56.88
9277;BME280;4676;42.678;23.244;2022-08-01T20:03:47;94030.97;;;20.91;57.04
9277;BME280;4676;42.678;23.244;2022-08-01T20:06:17;94032.53;;;20.82;58.71
9277;BME280;4676;42.678;23.244;2022-08-01T20:08:44;94032.06;;;20.77;58.26
9277;BME280;4676;42.678;23.244;2022-08-01T20:11:11;94026.09;;;20.77;57.84
9277;BME280;4676;42.678;23.244;2022-08-01T20:13:39;94023.34;;;20.69;58.71
9277;BME280;4676;42.678;23.244;2022-08-01T20:16:06;94032.00;;;20.68;58.96
9277;BME280;4676;42.678;23.244;2022-08-01T20:18:33;94036.63;;;20.53;60.21
9277;BME280;4676;42.678;23.244;2022-08-01T20:21:01;94043.16;;;20.57;60.45
9277;BME280;4676;42.678;23.244;2022-08-01T20:23:36;94040.44;;;20.59;59.90
9277;BME280;4676;42.678;23.244;2022-08-01T20:26:03;94041.41;;;20.58;61.87
9277;BME280;4676;42.678;23.244;2022-08-01T20:28:35;94037.66;;;20.62;62.02
9277;BME280;4676;42.678;23.244;2022-08-01T20:31:05;94040.94;;;20.53;63.95
9277;BME280;4676;42.678;23.244;2022-08-01T20:33:33;94044.13;;;20.45;64.00
9277;BME280;4676;42.678;23.244;2022-08-01T20:36:03;94041.78;;;20.42;65.24
9277;BME280;4676;42.678;23.244;2022-08-01T20:38:32;94040.06;;;20.31;65.50
9277;BME280;4676;42.678;23.244;2022-08-01T20:41:01;94047.75;;;20.20;65.31
9277;BME280;4676;42.678;23.244;2022-08-01T20:43:29;94036.44;;;20.12;65.96
9277;BME280;4676;42.678;23.244;2022-08-01T20:45:56;94048.16;;;20.05;67.21
9277;BME280;4676;42.678;23.244;2022-08-01T20:48:24;94033.75;;;20.02;66.98
9277;BME280;4676;42.678;23.244;2022-08-01T20:50:52;94043.13;;;19.92;67.58
9277;BME280;4676;42.678;23.244;2022-08-01T20:53:39;94039.38;;;19.96;66.32
9277;BME280;4676;42.678;23.244;2022-08-01T20:56:09;94043.34;;;20.00;66.78
9277;BME280;4676;42.678;23.244;2022-08-01T20:58:53;94041.97;;;19.85;67.64
9277;BME280;4676;42.678;23.244;2022-08-01T21:01:23;94041.38;;;19.81;67.10
9277;BME280;4676;42.678;23.244;2022-08-01T21:04:08;94033.31;;;19.75;67.50
9277;BME280;4676;42.678;23.244;2022-08-01T21:06:41;94029.34;;;19.71;70.03
9277;BME280;4676;42.678;23.244;2022-08-01T21:09:12;94021.41;;;19.63;68.30
9277;BME280;4676;42.678;23.244;2022-08-01T21:11:48;94036.59;;;19.77;69.10
9277;BME280;4676;42.678;23.244;2022-08-01T21:14:19;94035.66;;;19.78;71.69
9277;BME280;4676;42.678;23.244;2022-08-01T21:16:51;94031.47;;;19.77;73.05
9277;BME280;4676;42.678;23.244;2022-08-01T21:19:25;94029.34;;;19.71;72.81
9277;BME280;4676;42.678;23.244;2022-08-01T21:21:58;94019.53;;;19.65;72.17
9277;BME280;4676;42.678;23.244;2022-08-01T21:24:37;94029.94;;;19.52;73.86
9277;BME280;4676;42.678;23.244;2022-08-01T21:27:10;94027.59;;;19.49;73.71
9277;BME280;4676;42.678;23.244;2022-08-01T21:29:39;94021.06;;;19.56;74.33
9277;BME280;4676;42.678;23.244;2022-08-01T21:32:08;94024.09;;;19.61;73.51
9277;BME280;4676;42.678;23.244;2022-08-01T21:34:43;94025.25;;;19.57;72.50
9277;BME280;4676;42.678;23.244;2022-08-01T21:37:13;94025.38;;;19.56;73.62
9277;BME280;4676;42.678;23.244;2022-08-01T21:39:42;94020.91;;;19.47;73.07
9277;BME280;4676;42.678;23.244;2022-08-01T21:42:10;94025.59;;;19.41;73.49
9277;BME280;4676;42.678;23.244;2022-08-01T21:44:37;94014.81;;;19.36;72.81
9277;BME280;4676;42.678;23.244;2022-08-01T21:47:05;94017.84;;;19.30;73.16
9277;BME280;4676;42.678;23.244;2022-08-01T21:49:32;94014.91;;;19.24;73.36
9277;BME280;4676;42.678;23.244;2022-08-01T21:52:03;94020.97;;;19.23;73.42
9277;BME280;4676;42.678;23.244;2022-08-01T21:54:36;94022.13;;;19.19;73.99
9277;BME280;4676;42.678;23.244;2022-08-01T21:57:16;94025.19;;;19.24;73.83
9277;BME280;4676;42.678;23.244;2022-08-01T21:59:52;94022.84;;;19.21;74.88
9277;BME280;4676;42.678;23.244;2022-08-01T22:02:25;94023.56;;;19.23;74.75
9277;BME280;4676;42.678;23.244;2022-08-01T22:04:56;94019.56;;;19.19;75.01
9277;BME280;4676;42.678;23.244;2022-08-01T22:07:26;94021.81;;;19.23;75.19
9277;BME280;4676;42.678;23.244;2022-08-01T22:09:56;94010.00;;;19.21;75.90
9277;BME280;4676;42.678;23.244;2022-08-01T22:12:25;94017.00;;;19.19;76.09
9277;BME280;4676;42.678;23.244;2022-08-01T22:14:54;94015.16;;;19.21;75.90
9277;BME280;4676;42.678;23.244;2022-08-01T22:17:22;94009.19;;;19.20;75.90
9277;BME280;4676;42.678;23.244;2022-08-01T22:19:50;94014.19;;;19.22;74.20
9277;BME280;4676;42.678;23.244;2022-08-01T22:22:20;94011.97;;;19.28;73.82
9277;BME280;4676;42.678;23.244;2022-08-01T22:24:48;93997.03;;;19.22;72.58
9277;BME280;4676;42.678;23.244;2022-08-01T22:27:15;94004.06;;;19.20;73.13
9277;BME280;4676;42.678;23.244;2022-08-01T22:29:54;94003.47;;;19.28;72.32
9277;BME280;4676;42.678;23.244;2022-08-01T22:32:24;94008.25;;;19.32;72.25
9277;BME280;4676;42.678;23.244;2022-08-01T22:34:51;94002.88;;;19.35;70.96
9277;BME280;4676;42.678;23.244;2022-08-01T22:37:18;94008.00;;;19.35;70.28
9277;BME280;4676;42.678;23.244;2022-08-01T22:39:45;94007.44;;;19.32;70.38
9277;BME280;4676;42.678;23.244;2022-08-01T22:42:12;94002.44;;;19.30;70.55
9277;BME280;4676;42.678;23.244;2022-08-01T22:45:04;94004.16;;;19.30;71.54
9277;BME280;4676;42.678;23.244;2022-08-01T22:47:44;94005.31;;;19.26;69.53
9277;BME280;4676;42.678;23.244;2022-08-01T22:50:18;94005.81;;;19.31;69.10
9277;BME280;4676;42.678;23.244;2022-08-01T22:52:54;94002.28;;;19.32;67.96
9277;BME280;4676;42.678;23.244;2022-08-01T22:55:24;93984.91;;;19.24;68.05
9277;BME280;4676;42.678;23.244;2022-08-01T22:57:56;94003.34;;;19.29;67.69
9277;BME280;4676;42.678;23.244;2022-08-01T23:00:27;93994.22;;;19.25;67.44
9277;BME280;4676;42.678;23.244;2022-08-01T23:02:58;93994.94;;;19.27;66.20
9277;BME280;4676;42.678;23.244;2022-08-01T23:05:33;93991.41;;;19.28;66.81
9277;BME280;4676;42.678;23.244;2022-08-01T23:08:03;93995.53;;;19.20;65.39
9277;BME280;4676;42.678;23.244;2022-08-01T23:10:30;93990.84;;;19.14;66.40
9277;BME280;4676;42.678;23.244;2022-08-01T23:12:58;93974.94;;;19.09;66.92
9277;BME280;4676;42.678;23.244;2022-08-01T23:15:28;93987.00;;;19.19;67.26
9277;BME280;4676;42.678;23.244;2022-08-01T23:17:56;93985.47;;;19.17;67.31
9277;BME280;4676;42.678;23.244;2022-08-01T23:20:23;93984.88;;;19.13;68.11
9277;BME280;4676;42.678;23.244;2022-08-01T23:22:51;93986.41;;;19.16;69.09
9277;BME280;4676;42.678;23.244;2022-08-01T23:25:19;93992.81;;;19.21;67.14
9277;BME280;4676;42.678;23.244;2022-08-01T23:27:46;93969.72;;;19.10;68.17
9277;BME280;4676;42.678;23.244;2022-08-01T23:30:13;93984.75;;;19.15;67.25
9277;BME280;4676;42.678;23.244;2022-08-01T23:32:41;93984.75;;;19.15;69.05
9277;BME280;4676;42.678;23.244;2022-08-01T23:35:08;93936.03;;;18.80;69.20
9277;BME280;4676;42.678;23.244;2022-08-01T23:37:35;93982.41;;;19.01;68.03
9277;BME280;4676;42.678;23.244;2022-08-01T23:40:03;93980.41;;;19.04;67.11
9277;BME280;4676;42.678;23.244;2022-08-01T23:42:30;93964.53;;;18.99;67.38
9277;BME280;4676;42.678;23.244;2022-08-01T23:44:57;93975.28;;;19.04;67.64
9277;BME280;4676;42.678;23.244;2022-08-01T23:47:23;93970.88;;;19.06;67.67
9277;BME280;4676;42.678;23.244;2022-08-01T23:49:51;93973.31;;;19.08;67.80
9277;BME280;4676;42.678;23.244;2022-08-01T23:52:18;93971.31;;;19.00;67.60
9277;BME280;4676;42.678;23.244;2022-08-01T23:54:45;93971.53;;;18.97;67.46
9277;BME280;4676;42.678;23.244;2022-08-01T23:57:12;93973.06;;;19.00;67.00
9277;BME280;4676;42.678;23.244;2022-08-01T23:59:38;93969.69;;;18.99;66.72
